Flight Track Log - Related Links

Times and Time Zones

All times are in EDT time to prevent confusion due to time zone crossing. See the CHH7749 flight status page for this flight to view local times or setup timezone preferences in your user account.

Time Position Orientation Groundspeed Altitude Reporting Facility
EDT Latitude Longitude Course Direction KTS MPH feet Rate Location/Type
Thu 11:03:00 AM 20.0516 111.1437 43° Northeast  Level Estimated
Thu 11:04:00 AM 20.1242 111.2166 43° Northeast  Level Estimated
Thu 11:05:00 AM 20.1966 111.2897 43° Northeast  Level Estimated
Thu 11:06:00 AM 20.2691 111.3628 43° Northeast  Level Estimated
Thu 11:07:00 AM 20.3415 111.4359 43° Northeast  Level Estimated
Thu 11:08:00 AM 20.4139 111.5091 43° Northeast  Level Estimated
Thu 11:09:00 AM 20.4862 111.5824 43° Northeast  Level Estimated
Thu 11:10:00 AM 20.5585 111.6558 44° Northeast  Level Estimated
Thu 11:11:00 AM 20.6308 111.7292 44° Northeast  Level Estimated
Thu 11:12:00 AM 20.7031 111.8027 44° Northeast  Level Estimated
Thu 11:13:00 AM 20.7753 111.8763 44° Northeast  Level Estimated
Thu 11:14:00 AM 20.8475 111.9500 44° Northeast  Level Estimated
Thu 11:15:00 AM 20.9197 112.0237 44° Northeast  Level Estimated
Thu 11:16:00 AM 20.9918 112.0975 44° Northeast  Level Estimated
Thu 11:17:00 AM 21.0639 112.1713 44° Northeast  Level Estimated
Thu 11:18:00 AM 21.1360 112.2453 44° Northeast  Level Estimated
Thu 11:19:00 AM 21.2080 112.3193 44° Northeast  Level Estimated
Thu 11:20:00 AM 21.2801 112.3933 44° Northeast  Level Estimated
Thu 11:21:00 AM 21.3520 112.4675 44° Northeast  Level Estimated
Thu 11:22:00 AM 21.4240 112.5417 44° Northeast  Level Estimated
Thu 11:23:00 AM 21.4959 112.6160 44° Northeast  Level Estimated
Thu 11:24:00 AM 21.5678 112.6904 44° Northeast  Level Estimated
Thu 11:25:00 AM 21.6396 112.7648 44° Northeast  Level Estimated
Thu 11:26:00 AM 21.7114 112.8393 44° Northeast  Level Estimated
Thu 11:27:00 AM 21.7832 112.9139 44° Northeast  Level Estimated
Thu 11:28:00 AM 21.8549 112.9886 44° Northeast  Level Estimated
Thu 11:29:00 AM 21.9266 113.0633 44° Northeast  Level Estimated
Thu 11:30:00 AM 21.9983 113.1381 44° Northeast  Level Estimated
Thu 11:31:00 AM 22.0700 113.2130 44° Northeast  Level Estimated
Thu 11:32:00 AM 22.1416 113.2880 44° Northeast  Level Estimated
Thu 11:33:00 AM 22.2131 113.3630 44° Northeast  Level Estimated
Thu 11:34:00 AM 22.2847 113.4382 44° Northeast  Level Estimated
Thu 11:35:00 AM 22.3562 113.5134 44° Northeast  Level Estimated
Thu 11:36:00 AM 22.4276 113.5886 44° Northeast  Level Estimated
Thu 11:37:00 AM 22.4991 113.6640 44° Northeast  Level Estimated
Thu 11:38:00 AM 22.5705 113.7394 44° Northeast  Level Estimated
Thu 11:39:00 AM 22.6395 113.8124 44° Northeast  Level Estimated
Thu 11:40:00 AM 22.6395 113.8124 North  Level Estimated
Thu 11:41:00 AM 22.6395 113.8124 North  Level Estimated
Thu 11:42:00 AM 22.6395 113.8124 North  Level Estimated
Thu 11:43:00 AM 22.6395 113.8124 North  Level Estimated
Thu 11:44:00 AM 22.6395 113.8124 North  Level Estimated
Thu 11:45:00 AM 22.6395 113.8124 North  Level Estimated
Thu 11:46:00 AM 22.6395 113.8124 North  Level Estimated
Thu 11:47:00 AM 22.6395 113.8124 North  Level Estimated
Thu 11:48:00 AM 22.6395 113.8124 North  Level Estimated
Thu 11:49:00 AM 22.6395 113.8124 North  Level Estimated
Thu 11:50:00 AM 22.6395 113.8124 North  Level Estimated
Thu 11:51:00 AM 22.6395 113.8124 North  Level Estimated
Thu 11:52:00 AM 22.6395 113.8124 North  Level Estimated
Thu 11:53:00 AM 22.6395 113.8124 North  Level Estimated
Thu 11:54:00 AM 22.6395 113.8124 North  Level Estimated
Thu 11:55:00 AM 22.6395 113.8124 North  Level Estimated

Login

Don't have an account? Register now (free) for customized features, flight alerts, and more!